<?xml version="1.0" encoding="UTF-8" standalone="no" ?>
<gpx xmlns="http://www.topografix.com/GPX/1/1" xmlns:xsi="http://www.w3.org/2001/XMLSchema-instance" xsi:schemaLocation="http://www.topografix.com/GPX/1/1 http://www.topografix.com/GPX/1/1/gpx.xsd" version="1.1" creator="VisuGPX - https://www.visugpx.com">
  <metadata>
    <name>Gouesnou_Plouvien</name>
    <desc><![CDATA[Cyclisme VTT, 37.628km, Dénivelé 194m : Gouesnou -> Gouesnou]]></desc>
  </metadata>
  <trk>
    <name><![CDATA[OR-4949739--Gouesnou:Gouesnou Plouvien Guipavas Gouesnou]]></name>
    <trkseg>
      <trkpt lat="48.45517" lon="-4.46084">
        <ele>87</ele>
        <time>2017-07-17T19:26:10Z</time>
      </trkpt>
      <trkpt lat="48.4552" lon="-4.46089">
        <ele>86</ele>
        <time>2017-07-17T19:28:10Z</time>
      </trkpt>
      <trkpt lat="48.45549" lon="-4.46074">
        <ele>86</ele>
        <time>2017-07-17T19:30:10Z</time>
      </trkpt>
      <trkpt lat="48.45563" lon="-4.4608">
        <ele>86</ele>
        <time>2017-07-17T19:32:10Z</time>
      </trkpt>
      <trkpt lat="48.45586" lon="-4.46143">
        <ele>86</ele>
        <time>2017-07-17T19:34:10Z</time>
      </trkpt>
      <trkpt lat="48.45602" lon="-4.46143">
        <ele>86</ele>
        <time>2017-07-17T19:36:10Z</time>
      </trkpt>
      <trkpt lat="48.45691" lon="-4.46056">
        <ele>86</ele>
        <time>2017-07-17T19:38:10Z</time>
      </trkpt>
      <trkpt lat="48.45702" lon="-4.46059">
        <ele>86</ele>
        <time>2017-07-17T19:40:10Z</time>
      </trkpt>
      <trkpt lat="48.45712" lon="-4.46182">
        <ele>88</ele>
        <time>2017-07-17T19:42:10Z</time>
      </trkpt>
      <trkpt lat="48.45711" lon="-4.46277">
        <ele>88</ele>
        <time>2017-07-17T19:44:10Z</time>
      </trkpt>
      <trkpt lat="48.45725" lon="-4.46414">
        <ele>89</ele>
        <time>2017-07-17T19:46:10Z</time>
      </trkpt>
      <trkpt lat="48.45725" lon="-4.4655">
        <ele>89</ele>
        <time>2017-07-17T19:48:10Z</time>
      </trkpt>
      <trkpt lat="48.45714" lon="-4.46617">
        <ele>89</ele>
        <time>2017-07-17T19:50:10Z</time>
      </trkpt>
      <trkpt lat="48.45657" lon="-4.46785">
        <ele>89</ele>
        <time>2017-07-17T19:52:10Z</time>
      </trkpt>
      <trkpt lat="48.45624" lon="-4.46959">
        <ele>90</ele>
        <time>2017-07-17T19:54:10Z</time>
      </trkpt>
      <trkpt lat="48.45563" lon="-4.47218">
        <ele>90</ele>
        <time>2017-07-17T19:56:10Z</time>
      </trkpt>
      <trkpt lat="48.45561" lon="-4.47258">
        <ele>90</ele>
        <time>2017-07-17T19:58:10Z</time>
      </trkpt>
      <trkpt lat="48.45593" lon="-4.47398">
        <ele>89</ele>
        <time>2017-07-17T20:00:10Z</time>
      </trkpt>
      <trkpt lat="48.45607" lon="-4.47428">
        <ele>89</ele>
        <time>2017-07-17T20:02:10Z</time>
      </trkpt>
      <trkpt lat="48.45603" lon="-4.47447">
        <ele>89</ele>
        <time>2017-07-17T20:04:10Z</time>
      </trkpt>
      <trkpt lat="48.45619" lon="-4.47498">
        <ele>89</ele>
        <time>2017-07-17T20:06:10Z</time>
      </trkpt>
      <trkpt lat="48.45615" lon="-4.47516">
        <ele>90</ele>
        <time>2017-07-17T20:08:10Z</time>
      </trkpt>
      <trkpt lat="48.45604" lon="-4.47527">
        <ele>90</ele>
        <time>2017-07-17T20:10:10Z</time>
      </trkpt>
      <trkpt lat="48.45594" lon="-4.4759">
        <ele>90</ele>
        <time>2017-07-17T20:12:10Z</time>
      </trkpt>
      <trkpt lat="48.45547" lon="-4.4777">
        <ele>89</ele>
        <time>2017-07-17T20:14:10Z</time>
      </trkpt>
      <trkpt lat="48.45501" lon="-4.47885">
        <ele>89</ele>
        <time>2017-07-17T20:16:10Z</time>
      </trkpt>
      <trkpt lat="48.45459" lon="-4.48032">
        <ele>87</ele>
        <time>2017-07-17T20:18:10Z</time>
      </trkpt>
      <trkpt lat="48.4543" lon="-4.48078">
        <ele>87</ele>
        <time>2017-07-17T20:20:10Z</time>
      </trkpt>
      <trkpt lat="48.4538" lon="-4.48192">
        <ele>87</ele>
        <time>2017-07-17T20:22:10Z</time>
      </trkpt>
      <trkpt lat="48.45322" lon="-4.48411">
        <ele>86</ele>
        <time>2017-07-17T20:24:10Z</time>
      </trkpt>
      <trkpt lat="48.45312" lon="-4.48491">
        <ele>86</ele>
        <time>2017-07-17T20:26:10Z</time>
      </trkpt>
      <trkpt lat="48.45342" lon="-4.48772">
        <ele>90</ele>
        <time>2017-07-17T20:28:10Z</time>
      </trkpt>
      <trkpt lat="48.45339" lon="-4.48899">
        <ele>93</ele>
        <time>2017-07-17T20:30:10Z</time>
      </trkpt>
      <trkpt lat="48.45344" lon="-4.48948">
        <ele>93</ele>
        <time>2017-07-17T20:32:10Z</time>
      </trkpt>
      <trkpt lat="48.45368" lon="-4.49054">
        <ele>93</ele>
        <time>2017-07-17T20:34:10Z</time>
      </trkpt>
      <trkpt lat="48.454" lon="-4.49253">
        <ele>100</ele>
        <time>2017-07-17T20:36:10Z</time>
      </trkpt>
      <trkpt lat="48.45468" lon="-4.49257">
        <ele>97</ele>
        <time>2017-07-17T20:38:10Z</time>
      </trkpt>
      <trkpt lat="48.45687" lon="-4.49316">
        <ele>96</ele>
        <time>2017-07-17T20:40:10Z</time>
      </trkpt>
      <trkpt lat="48.45747" lon="-4.49376">
        <ele>96</ele>
        <time>2017-07-17T20:42:10Z</time>
      </trkpt>
      <trkpt lat="48.45775" lon="-4.49417">
        <ele>96</ele>
        <time>2017-07-17T20:44:10Z</time>
      </trkpt>
      <trkpt lat="48.45805" lon="-4.49509">
        <ele>96</ele>
        <time>2017-07-17T20:46:10Z</time>
      </trkpt>
      <trkpt lat="48.45817" lon="-4.49529">
        <ele>96</ele>
        <time>2017-07-17T20:48:10Z</time>
      </trkpt>
      <trkpt lat="48.45938" lon="-4.4951">
        <ele>96</ele>
        <time>2017-07-17T20:50:10Z</time>
      </trkpt>
      <trkpt lat="48.45969" lon="-4.49514">
        <ele>96</ele>
        <time>2017-07-17T20:52:10Z</time>
      </trkpt>
      <trkpt lat="48.46024" lon="-4.49491">
        <ele>95</ele>
        <time>2017-07-17T20:54:10Z</time>
      </trkpt>
      <trkpt lat="48.46046" lon="-4.49494">
        <ele>94</ele>
        <time>2017-07-17T20:56:10Z</time>
      </trkpt>
      <trkpt lat="48.46074" lon="-4.4951">
        <ele>94</ele>
        <time>2017-07-17T20:58:10Z</time>
      </trkpt>
      <trkpt lat="48.46153" lon="-4.49531">
        <ele>95</ele>
        <time>2017-07-17T21:00:10Z</time>
      </trkpt>
      <trkpt lat="48.46182" lon="-4.4952">
        <ele>95</ele>
        <time>2017-07-17T21:02:10Z</time>
      </trkpt>
      <trkpt lat="48.46299" lon="-4.49414">
        <ele>93</ele>
        <time>2017-07-17T21:04:10Z</time>
      </trkpt>
      <trkpt lat="48.46388" lon="-4.49372">
        <ele>90</ele>
        <time>2017-07-17T21:06:10Z</time>
      </trkpt>
      <trkpt lat="48.46395" lon="-4.4936">
        <ele>90</ele>
        <time>2017-07-17T21:08:10Z</time>
      </trkpt>
      <trkpt lat="48.46394" lon="-4.49254">
        <ele>88</ele>
        <time>2017-07-17T21:10:10Z</time>
      </trkpt>
      <trkpt lat="48.46382" lon="-4.49128">
        <ele>88</ele>
        <time>2017-07-17T21:12:10Z</time>
      </trkpt>
      <trkpt lat="48.4637" lon="-4.49059">
        <ele>88</ele>
        <time>2017-07-17T21:14:10Z</time>
      </trkpt>
      <trkpt lat="48.46342" lon="-4.48969">
        <ele>88</ele>
        <time>2017-07-17T21:16:10Z</time>
      </trkpt>
      <trkpt lat="48.463" lon="-4.48735">
        <ele>90</ele>
        <time>2017-07-17T21:18:10Z</time>
      </trkpt>
      <trkpt lat="48.46304" lon="-4.48719">
        <ele>89</ele>
        <time>2017-07-17T21:20:10Z</time>
      </trkpt>
      <trkpt lat="48.46359" lon="-4.48769">
        <ele>89</ele>
        <time>2017-07-17T21:22:10Z</time>
      </trkpt>
      <trkpt lat="48.46696" lon="-4.48864">
        <ele>89</ele>
        <time>2017-07-17T21:24:10Z</time>
      </trkpt>
      <trkpt lat="48.46995" lon="-4.48892">
        <ele>86</ele>
        <time>2017-07-17T21:26:10Z</time>
      </trkpt>
      <trkpt lat="48.47043" lon="-4.48904">
        <ele>85</ele>
        <time>2017-07-17T21:28:10Z</time>
      </trkpt>
      <trkpt lat="48.47076" lon="-4.48928">
        <ele>84</ele>
        <time>2017-07-17T21:30:10Z</time>
      </trkpt>
      <trkpt lat="48.4711" lon="-4.48965">
        <ele>83</ele>
        <time>2017-07-17T21:32:10Z</time>
      </trkpt>
      <trkpt lat="48.47128" lon="-4.49024">
        <ele>81</ele>
        <time>2017-07-17T21:34:10Z</time>
      </trkpt>
      <trkpt lat="48.47148" lon="-4.49126">
        <ele>77</ele>
        <time>2017-07-17T21:36:10Z</time>
      </trkpt>
      <trkpt lat="48.47155" lon="-4.49223">
        <ele>77</ele>
        <time>2017-07-17T21:38:10Z</time>
      </trkpt>
      <trkpt lat="48.47135" lon="-4.49325">
        <ele>77</ele>
        <time>2017-07-17T21:40:10Z</time>
      </trkpt>
      <trkpt lat="48.47138" lon="-4.49365">
        <ele>78</ele>
        <time>2017-07-17T21:42:10Z</time>
      </trkpt>
      <trkpt lat="48.47174" lon="-4.49461">
        <ele>81</ele>
        <time>2017-07-17T21:44:10Z</time>
      </trkpt>
      <trkpt lat="48.47188" lon="-4.49551">
        <ele>83</ele>
        <time>2017-07-17T21:46:10Z</time>
      </trkpt>
      <trkpt lat="48.47206" lon="-4.49612">
        <ele>84</ele>
        <time>2017-07-17T21:48:10Z</time>
      </trkpt>
      <trkpt lat="48.47281" lon="-4.49713">
        <ele>84</ele>
        <time>2017-07-17T21:50:10Z</time>
      </trkpt>
      <trkpt lat="48.47338" lon="-4.4971">
        <ele>83</ele>
        <time>2017-07-17T21:52:10Z</time>
      </trkpt>
      <trkpt lat="48.47369" lon="-4.49718">
        <ele>82</ele>
        <time>2017-07-17T21:54:10Z</time>
      </trkpt>
      <trkpt lat="48.47462" lon="-4.49762">
        <ele>79</ele>
        <time>2017-07-17T21:56:10Z</time>
      </trkpt>
      <trkpt lat="48.47554" lon="-4.49819">
        <ele>76</ele>
        <time>2017-07-17T21:58:10Z</time>
      </trkpt>
      <trkpt lat="48.47616" lon="-4.4987">
        <ele>75</ele>
        <time>2017-07-17T22:00:10Z</time>
      </trkpt>
      <trkpt lat="48.47662" lon="-4.49918">
        <ele>74</ele>
        <time>2017-07-17T22:02:10Z</time>
      </trkpt>
      <trkpt lat="48.47812" lon="-4.50102">
        <ele>71</ele>
        <time>2017-07-17T22:04:10Z</time>
      </trkpt>
      <trkpt lat="48.47823" lon="-4.50104">
        <ele>71</ele>
        <time>2017-07-17T22:06:10Z</time>
      </trkpt>
      <trkpt lat="48.47847" lon="-4.50091">
        <ele>70</ele>
        <time>2017-07-17T22:08:10Z</time>
      </trkpt>
      <trkpt lat="48.47937" lon="-4.5001">
        <ele>67</ele>
        <time>2017-07-17T22:10:10Z</time>
      </trkpt>
      <trkpt lat="48.48013" lon="-4.49886">
        <ele>65</ele>
        <time>2017-07-17T22:12:10Z</time>
      </trkpt>
      <trkpt lat="48.4803" lon="-4.49834">
        <ele>65</ele>
        <time>2017-07-17T22:14:10Z</time>
      </trkpt>
      <trkpt lat="48.48038" lon="-4.49767">
        <ele>64</ele>
        <time>2017-07-17T22:16:10Z</time>
      </trkpt>
      <trkpt lat="48.48046" lon="-4.49749">
        <ele>64</ele>
        <time>2017-07-17T22:18:10Z</time>
      </trkpt>
      <trkpt lat="48.48062" lon="-4.49764">
        <ele>64</ele>
        <time>2017-07-17T22:20:10Z</time>
      </trkpt>
      <trkpt lat="48.4805" lon="-4.49749">
        <ele>64</ele>
        <time>2017-07-17T22:22:10Z</time>
      </trkpt>
      <trkpt lat="48.48048" lon="-4.49733">
        <ele>64</ele>
        <time>2017-07-17T22:24:10Z</time>
      </trkpt>
      <trkpt lat="48.48061" lon="-4.49692">
        <ele>65</ele>
        <time>2017-07-17T22:26:10Z</time>
      </trkpt>
      <trkpt lat="48.48073" lon="-4.49688">
        <ele>65</ele>
        <time>2017-07-17T22:28:10Z</time>
      </trkpt>
      <trkpt lat="48.48398" lon="-4.50052">
        <ele>71</ele>
        <time>2017-07-17T22:30:10Z</time>
      </trkpt>
      <trkpt lat="48.484" lon="-4.50063">
        <ele>70</ele>
        <time>2017-07-17T22:32:10Z</time>
      </trkpt>
      <trkpt lat="48.48388" lon="-4.50096">
        <ele>70</ele>
        <time>2017-07-17T22:34:10Z</time>
      </trkpt>
      <trkpt lat="48.48399" lon="-4.50072">
        <ele>70</ele>
        <time>2017-07-17T22:36:10Z</time>
      </trkpt>
      <trkpt lat="48.48401" lon="-4.50054">
        <ele>71</ele>
        <time>2017-07-17T22:38:10Z</time>
      </trkpt>
      <trkpt lat="48.48261" lon="-4.49893">
        <ele>67</ele>
        <time>2017-07-17T22:40:10Z</time>
      </trkpt>
      <trkpt lat="48.48264" lon="-4.49884">
        <ele>67</ele>
        <time>2017-07-17T22:42:10Z</time>
      </trkpt>
      <trkpt lat="48.48274" lon="-4.49885">
        <ele>68</ele>
        <time>2017-07-17T22:44:10Z</time>
      </trkpt>
      <trkpt lat="48.48412" lon="-4.50048">
        <ele>72</ele>
        <time>2017-07-17T22:46:10Z</time>
      </trkpt>
      <trkpt lat="48.48434" lon="-4.5006">
        <ele>72</ele>
        <time>2017-07-17T22:48:10Z</time>
      </trkpt>
      <trkpt lat="48.48538" lon="-4.50204">
        <ele>69</ele>
        <time>2017-07-17T22:50:10Z</time>
      </trkpt>
      <trkpt lat="48.48567" lon="-4.50193">
        <ele>69</ele>
        <time>2017-07-17T22:52:10Z</time>
      </trkpt>
      <trkpt lat="48.48571" lon="-4.502">
        <ele>69</ele>
        <time>2017-07-17T22:54:10Z</time>
      </trkpt>
      <trkpt lat="48.48589" lon="-4.50199">
        <ele>69</ele>
        <time>2017-07-17T22:56:10Z</time>
      </trkpt>
      <trkpt lat="48.48586" lon="-4.50206">
        <ele>69</ele>
        <time>2017-07-17T22:58:10Z</time>
      </trkpt>
      <trkpt lat="48.48694" lon="-4.5018">
        <ele>74</ele>
        <time>2017-07-17T23:00:10Z</time>
      </trkpt>
      <trkpt lat="48.48699" lon="-4.50193">
        <ele>73</ele>
        <time>2017-07-17T23:02:10Z</time>
      </trkpt>
      <trkpt lat="48.48705" lon="-4.50373">
        <ele>70</ele>
        <time>2017-07-17T23:04:10Z</time>
      </trkpt>
      <trkpt lat="48.48658" lon="-4.5056">
        <ele>65</ele>
        <time>2017-07-17T23:06:10Z</time>
      </trkpt>
      <trkpt lat="48.48664" lon="-4.50584">
        <ele>65</ele>
        <time>2017-07-17T23:08:10Z</time>
      </trkpt>
      <trkpt lat="48.48678" lon="-4.50588">
        <ele>65</ele>
        <time>2017-07-17T23:10:10Z</time>
      </trkpt>
      <trkpt lat="48.48682" lon="-4.50575">
        <ele>64</ele>
        <time>2017-07-17T23:12:10Z</time>
      </trkpt>
      <trkpt lat="48.48704" lon="-4.50568">
        <ele>64</ele>
        <time>2017-07-17T23:14:10Z</time>
      </trkpt>
      <trkpt lat="48.48723" lon="-4.50524">
        <ele>64</ele>
        <time>2017-07-17T23:16:10Z</time>
      </trkpt>
      <trkpt lat="48.48837" lon="-4.50523">
        <ele>62</ele>
        <time>2017-07-17T23:18:10Z</time>
      </trkpt>
      <trkpt lat="48.48892" lon="-4.50554">
        <ele>62</ele>
        <time>2017-07-17T23:20:10Z</time>
      </trkpt>
      <trkpt lat="48.48962" lon="-4.50576">
        <ele>62</ele>
        <time>2017-07-17T23:22:10Z</time>
      </trkpt>
      <trkpt lat="48.49004" lon="-4.50563">
        <ele>62</ele>
        <time>2017-07-17T23:24:10Z</time>
      </trkpt>
      <trkpt lat="48.49107" lon="-4.5046">
        <ele>63</ele>
        <time>2017-07-17T23:26:10Z</time>
      </trkpt>
      <trkpt lat="48.49151" lon="-4.50388">
        <ele>61</ele>
        <time>2017-07-17T23:28:10Z</time>
      </trkpt>
      <trkpt lat="48.49182" lon="-4.50356">
        <ele>62</ele>
        <time>2017-07-17T23:30:10Z</time>
      </trkpt>
      <trkpt lat="48.49214" lon="-4.50341">
        <ele>62</ele>
        <time>2017-07-17T23:32:10Z</time>
      </trkpt>
      <trkpt lat="48.49213" lon="-4.50324">
        <ele>62</ele>
        <time>2017-07-17T23:34:10Z</time>
      </trkpt>
      <trkpt lat="48.49198" lon="-4.50304">
        <ele>62</ele>
        <time>2017-07-17T23:36:10Z</time>
      </trkpt>
      <trkpt lat="48.49193" lon="-4.50276">
        <ele>61</ele>
        <time>2017-07-17T23:38:10Z</time>
      </trkpt>
      <trkpt lat="48.49199" lon="-4.50255">
        <ele>61</ele>
        <time>2017-07-17T23:40:10Z</time>
      </trkpt>
      <trkpt lat="48.4918" lon="-4.50236">
        <ele>61</ele>
        <time>2017-07-17T23:42:10Z</time>
      </trkpt>
      <trkpt lat="48.49181" lon="-4.50218">
        <ele>61</ele>
        <time>2017-07-17T23:44:10Z</time>
      </trkpt>
      <trkpt lat="48.49198" lon="-4.50192">
        <ele>62</ele>
        <time>2017-07-17T23:46:10Z</time>
      </trkpt>
      <trkpt lat="48.49222" lon="-4.50177">
        <ele>62</ele>
        <time>2017-07-17T23:48:10Z</time>
      </trkpt>
      <trkpt lat="48.49223" lon="-4.50165">
        <ele>62</ele>
        <time>2017-07-17T23:50:10Z</time>
      </trkpt>
      <trkpt lat="48.49135" lon="-4.50143">
        <ele>62</ele>
        <time>2017-07-17T23:52:10Z</time>
      </trkpt>
      <trkpt lat="48.4912" lon="-4.50131">
        <ele>61</ele>
        <time>2017-07-17T23:54:10Z</time>
      </trkpt>
      <trkpt lat="48.49084" lon="-4.50126">
        <ele>61</ele>
        <time>2017-07-17T23:56:10Z</time>
      </trkpt>
      <trkpt lat="48.49066" lon="-4.50108">
        <ele>61</ele>
        <time>2017-07-17T23:58:10Z</time>
      </trkpt>
      <trkpt lat="48.49059" lon="-4.50083">
        <ele>61</ele>
        <time>2017-07-18T00:00:10Z</time>
      </trkpt>
      <trkpt lat="48.49049" lon="-4.50079">
        <ele>61</ele>
        <time>2017-07-18T00:02:10Z</time>
      </trkpt>
      <trkpt lat="48.4902" lon="-4.49972">
        <ele>62</ele>
        <time>2017-07-18T00:04:10Z</time>
      </trkpt>
      <trkpt lat="48.48968" lon="-4.49871">
        <ele>63</ele>
        <time>2017-07-18T00:06:10Z</time>
      </trkpt>
      <trkpt lat="48.48951" lon="-4.49809">
        <ele>64</ele>
        <time>2017-07-18T00:08:10Z</time>
      </trkpt>
      <trkpt lat="48.48934" lon="-4.4979">
        <ele>64</ele>
        <time>2017-07-18T00:10:10Z</time>
      </trkpt>
      <trkpt lat="48.48894" lon="-4.49782">
        <ele>64</ele>
        <time>2017-07-18T00:12:10Z</time>
      </trkpt>
      <trkpt lat="48.48941" lon="-4.49789">
        <ele>64</ele>
        <time>2017-07-18T00:14:10Z</time>
      </trkpt>
      <trkpt lat="48.48976" lon="-4.49738">
        <ele>63</ele>
        <time>2017-07-18T00:16:10Z</time>
      </trkpt>
      <trkpt lat="48.4903" lon="-4.49694">
        <ele>63</ele>
        <time>2017-07-18T00:18:10Z</time>
      </trkpt>
      <trkpt lat="48.49077" lon="-4.49747">
        <ele>63</ele>
        <time>2017-07-18T00:20:10Z</time>
      </trkpt>
      <trkpt lat="48.49163" lon="-4.49794">
        <ele>63</ele>
        <time>2017-07-18T00:22:10Z</time>
      </trkpt>
      <trkpt lat="48.49189" lon="-4.49793">
        <ele>64</ele>
        <time>2017-07-18T00:24:10Z</time>
      </trkpt>
      <trkpt lat="48.49241" lon="-4.49756">
        <ele>67</ele>
        <time>2017-07-18T00:26:10Z</time>
      </trkpt>
      <trkpt lat="48.49248" lon="-4.4973">
        <ele>68</ele>
        <time>2017-07-18T00:28:10Z</time>
      </trkpt>
      <trkpt lat="48.49245" lon="-4.49666">
        <ele>69</ele>
        <time>2017-07-18T00:30:10Z</time>
      </trkpt>
      <trkpt lat="48.4925" lon="-4.49653">
        <ele>69</ele>
        <time>2017-07-18T00:32:10Z</time>
      </trkpt>
      <trkpt lat="48.49328" lon="-4.49631">
        <ele>74</ele>
        <time>2017-07-18T00:34:10Z</time>
      </trkpt>
      <trkpt lat="48.49345" lon="-4.49616">
        <ele>75</ele>
        <time>2017-07-18T00:36:10Z</time>
      </trkpt>
      <trkpt lat="48.49347" lon="-4.49582">
        <ele>75</ele>
        <time>2017-07-18T00:38:10Z</time>
      </trkpt>
      <trkpt lat="48.49329" lon="-4.49542">
        <ele>76</ele>
        <time>2017-07-18T00:40:10Z</time>
      </trkpt>
      <trkpt lat="48.49352" lon="-4.49576">
        <ele>75</ele>
        <time>2017-07-18T00:42:10Z</time>
      </trkpt>
      <trkpt lat="48.49405" lon="-4.49575">
        <ele>75</ele>
        <time>2017-07-18T00:44:10Z</time>
      </trkpt>
      <trkpt lat="48.49401" lon="-4.4957">
        <ele>75</ele>
        <time>2017-07-18T00:46:10Z</time>
      </trkpt>
      <trkpt lat="48.49444" lon="-4.49508">
        <ele>73</ele>
        <time>2017-07-18T00:48:10Z</time>
      </trkpt>
      <trkpt lat="48.49471" lon="-4.49484">
        <ele>72</ele>
        <time>2017-07-18T00:50:10Z</time>
      </trkpt>
      <trkpt lat="48.49483" lon="-4.49452">
        <ele>72</ele>
        <time>2017-07-18T00:52:10Z</time>
      </trkpt>
      <trkpt lat="48.49508" lon="-4.49343">
        <ele>72</ele>
        <time>2017-07-18T00:54:10Z</time>
      </trkpt>
      <trkpt lat="48.49538" lon="-4.49302">
        <ele>73</ele>
        <time>2017-07-18T00:56:10Z</time>
      </trkpt>
      <trkpt lat="48.49549" lon="-4.49272">
        <ele>73</ele>
        <time>2017-07-18T00:58:10Z</time>
      </trkpt>
      <trkpt lat="48.49562" lon="-4.49189">
        <ele>74</ele>
        <time>2017-07-18T01:00:10Z</time>
      </trkpt>
      <trkpt lat="48.49591" lon="-4.49168">
        <ele>73</ele>
        <time>2017-07-18T01:02:10Z</time>
      </trkpt>
      <trkpt lat="48.49565" lon="-4.49117">
        <ele>74</ele>
        <time>2017-07-18T01:04:10Z</time>
      </trkpt>
      <trkpt lat="48.49556" lon="-4.49085">
        <ele>75</ele>
        <time>2017-07-18T01:06:10Z</time>
      </trkpt>
      <trkpt lat="48.49774" lon="-4.49066">
        <ele>77</ele>
        <time>2017-07-18T01:08:10Z</time>
      </trkpt>
      <trkpt lat="48.4991" lon="-4.49041">
        <ele>76</ele>
        <time>2017-07-18T01:10:10Z</time>
      </trkpt>
      <trkpt lat="48.49949" lon="-4.4904">
        <ele>77</ele>
        <time>2017-07-18T01:12:10Z</time>
      </trkpt>
      <trkpt lat="48.49963" lon="-4.49029">
        <ele>77</ele>
        <time>2017-07-18T01:14:10Z</time>
      </trkpt>
      <trkpt lat="48.50006" lon="-4.48905">
        <ele>77</ele>
        <time>2017-07-18T01:16:10Z</time>
      </trkpt>
      <trkpt lat="48.50015" lon="-4.48864">
        <ele>76</ele>
        <time>2017-07-18T01:18:10Z</time>
      </trkpt>
      <trkpt lat="48.50019" lon="-4.48753">
        <ele>72</ele>
        <time>2017-07-18T01:20:10Z</time>
      </trkpt>
      <trkpt lat="48.50026" lon="-4.48735">
        <ele>72</ele>
        <time>2017-07-18T01:22:10Z</time>
      </trkpt>
      <trkpt lat="48.50064" lon="-4.48744">
        <ele>73</ele>
        <time>2017-07-18T01:24:10Z</time>
      </trkpt>
      <trkpt lat="48.50084" lon="-4.48739">
        <ele>73</ele>
        <time>2017-07-18T01:26:10Z</time>
      </trkpt>
      <trkpt lat="48.50145" lon="-4.48698">
        <ele>73</ele>
        <time>2017-07-18T01:28:10Z</time>
      </trkpt>
      <trkpt lat="48.50191" lon="-4.48679">
        <ele>73</ele>
        <time>2017-07-18T01:30:10Z</time>
      </trkpt>
      <trkpt lat="48.50208" lon="-4.48679">
        <ele>72</ele>
        <time>2017-07-18T01:32:10Z</time>
      </trkpt>
      <trkpt lat="48.50342" lon="-4.48722">
        <ele>71</ele>
        <time>2017-07-18T01:34:10Z</time>
      </trkpt>
      <trkpt lat="48.50459" lon="-4.48724">
        <ele>70</ele>
        <time>2017-07-18T01:36:10Z</time>
      </trkpt>
      <trkpt lat="48.50472" lon="-4.48718">
        <ele>70</ele>
        <time>2017-07-18T01:38:10Z</time>
      </trkpt>
      <trkpt lat="48.5047" lon="-4.48727">
        <ele>70</ele>
        <time>2017-07-18T01:40:10Z</time>
      </trkpt>
      <trkpt lat="48.50575" lon="-4.48707">
        <ele>71</ele>
        <time>2017-07-18T01:42:10Z</time>
      </trkpt>
      <trkpt lat="48.50649" lon="-4.48657">
        <ele>71</ele>
        <time>2017-07-18T01:44:10Z</time>
      </trkpt>
      <trkpt lat="48.5072" lon="-4.48638">
        <ele>70</ele>
        <time>2017-07-18T01:46:10Z</time>
      </trkpt>
      <trkpt lat="48.50816" lon="-4.48561">
        <ele>70</ele>
        <time>2017-07-18T01:48:10Z</time>
      </trkpt>
      <trkpt lat="48.50829" lon="-4.48516">
        <ele>69</ele>
        <time>2017-07-18T01:50:10Z</time>
      </trkpt>
      <trkpt lat="48.50912" lon="-4.48392">
        <ele>73</ele>
        <time>2017-07-18T01:52:10Z</time>
      </trkpt>
      <trkpt lat="48.50972" lon="-4.4834">
        <ele>73</ele>
        <time>2017-07-18T01:54:10Z</time>
      </trkpt>
      <trkpt lat="48.51034" lon="-4.48304">
        <ele>73</ele>
        <time>2017-07-18T01:56:10Z</time>
      </trkpt>
      <trkpt lat="48.51089" lon="-4.48292">
        <ele>73</ele>
        <time>2017-07-18T01:58:10Z</time>
      </trkpt>
      <trkpt lat="48.51115" lon="-4.48278">
        <ele>72</ele>
        <time>2017-07-18T02:00:10Z</time>
      </trkpt>
      <trkpt lat="48.5117" lon="-4.4822">
        <ele>71</ele>
        <time>2017-07-18T02:02:10Z</time>
      </trkpt>
      <trkpt lat="48.51316" lon="-4.48027">
        <ele>66</ele>
        <time>2017-07-18T02:04:10Z</time>
      </trkpt>
      <trkpt lat="48.51354" lon="-4.47992">
        <ele>65</ele>
        <time>2017-07-18T02:06:10Z</time>
      </trkpt>
      <trkpt lat="48.51459" lon="-4.47921">
        <ele>63</ele>
        <time>2017-07-18T02:08:10Z</time>
      </trkpt>
      <trkpt lat="48.51482" lon="-4.47884">
        <ele>63</ele>
        <time>2017-07-18T02:10:10Z</time>
      </trkpt>
      <trkpt lat="48.51532" lon="-4.47764">
        <ele>65</ele>
        <time>2017-07-18T02:12:10Z</time>
      </trkpt>
      <trkpt lat="48.51575" lon="-4.477">
        <ele>67</ele>
        <time>2017-07-18T02:14:10Z</time>
      </trkpt>
      <trkpt lat="48.51625" lon="-4.47654">
        <ele>68</ele>
        <time>2017-07-18T02:16:10Z</time>
      </trkpt>
      <trkpt lat="48.51786" lon="-4.47458">
        <ele>68</ele>
        <time>2017-07-18T02:18:10Z</time>
      </trkpt>
      <trkpt lat="48.51858" lon="-4.47335">
        <ele>69</ele>
        <time>2017-07-18T02:20:10Z</time>
      </trkpt>
      <trkpt lat="48.52018" lon="-4.47085">
        <ele>68</ele>
        <time>2017-07-18T02:22:10Z</time>
      </trkpt>
      <trkpt lat="48.52206" lon="-4.46676">
        <ele>72</ele>
        <time>2017-07-18T02:24:10Z</time>
      </trkpt>
      <trkpt lat="48.5233" lon="-4.46502">
        <ele>69</ele>
        <time>2017-07-18T02:26:10Z</time>
      </trkpt>
      <trkpt lat="48.52353" lon="-4.46458">
        <ele>68</ele>
        <time>2017-07-18T02:28:10Z</time>
      </trkpt>
      <trkpt lat="48.5239" lon="-4.46212">
        <ele>67</ele>
        <time>2017-07-18T02:30:10Z</time>
      </trkpt>
      <trkpt lat="48.52407" lon="-4.46152">
        <ele>65</ele>
        <time>2017-07-18T02:32:10Z</time>
      </trkpt>
      <trkpt lat="48.52436" lon="-4.46088">
        <ele>63</ele>
        <time>2017-07-18T02:34:10Z</time>
      </trkpt>
      <trkpt lat="48.52555" lon="-4.45921">
        <ele>63</ele>
        <time>2017-07-18T02:36:10Z</time>
      </trkpt>
      <trkpt lat="48.52573" lon="-4.45911">
        <ele>64</ele>
        <time>2017-07-18T02:38:10Z</time>
      </trkpt>
      <trkpt lat="48.52621" lon="-4.46057">
        <ele>61</ele>
        <time>2017-07-18T02:40:10Z</time>
      </trkpt>
      <trkpt lat="48.52649" lon="-4.46107">
        <ele>60</ele>
        <time>2017-07-18T02:42:10Z</time>
      </trkpt>
      <trkpt lat="48.52737" lon="-4.46352">
        <ele>62</ele>
        <time>2017-07-18T02:44:10Z</time>
      </trkpt>
      <trkpt lat="48.52766" lon="-4.46582">
        <ele>69</ele>
        <time>2017-07-18T02:46:10Z</time>
      </trkpt>
      <trkpt lat="48.52793" lon="-4.46703">
        <ele>69</ele>
        <time>2017-07-18T02:48:10Z</time>
      </trkpt>
      <trkpt lat="48.528" lon="-4.46712">
        <ele>69</ele>
        <time>2017-07-18T02:50:10Z</time>
      </trkpt>
      <trkpt lat="48.52827" lon="-4.46796">
        <ele>70</ele>
        <time>2017-07-18T02:52:10Z</time>
      </trkpt>
      <trkpt lat="48.52882" lon="-4.46911">
        <ele>70</ele>
        <time>2017-07-18T02:54:10Z</time>
      </trkpt>
      <trkpt lat="48.52951" lon="-4.47003">
        <ele>69</ele>
        <time>2017-07-18T02:56:10Z</time>
      </trkpt>
      <trkpt lat="48.52983" lon="-4.47032">
        <ele>68</ele>
        <time>2017-07-18T02:58:10Z</time>
      </trkpt>
      <trkpt lat="48.52987" lon="-4.47048">
        <ele>68</ele>
        <time>2017-07-18T03:00:10Z</time>
      </trkpt>
      <trkpt lat="48.5302" lon="-4.47075">
        <ele>67</ele>
        <time>2017-07-18T03:02:10Z</time>
      </trkpt>
      <trkpt lat="48.53056" lon="-4.47085">
        <ele>66</ele>
        <time>2017-07-18T03:04:10Z</time>
      </trkpt>
      <trkpt lat="48.53086" lon="-4.47076">
        <ele>66</ele>
        <time>2017-07-18T03:06:10Z</time>
      </trkpt>
      <trkpt lat="48.53128" lon="-4.47044">
        <ele>63</ele>
        <time>2017-07-18T03:08:10Z</time>
      </trkpt>
      <trkpt lat="48.5316" lon="-4.47107">
        <ele>61</ele>
        <time>2017-07-18T03:10:10Z</time>
      </trkpt>
      <trkpt lat="48.53238" lon="-4.4712">
        <ele>57</ele>
        <time>2017-07-18T03:12:10Z</time>
      </trkpt>
      <trkpt lat="48.53367" lon="-4.47112">
        <ele>55</ele>
        <time>2017-07-18T03:14:10Z</time>
      </trkpt>
      <trkpt lat="48.53351" lon="-4.47115">
        <ele>55</ele>
        <time>2017-07-18T03:16:10Z</time>
      </trkpt>
      <trkpt lat="48.53343" lon="-4.47157">
        <ele>55</ele>
        <time>2017-07-18T03:18:10Z</time>
      </trkpt>
      <trkpt lat="48.53345" lon="-4.47253">
        <ele>51</ele>
        <time>2017-07-18T03:20:10Z</time>
      </trkpt>
      <trkpt lat="48.53403" lon="-4.47375">
        <ele>48</ele>
        <time>2017-07-18T03:22:10Z</time>
      </trkpt>
      <trkpt lat="48.53448" lon="-4.47434">
        <ele>46</ele>
        <time>2017-07-18T03:24:10Z</time>
      </trkpt>
      <trkpt lat="48.5347" lon="-4.47443">
        <ele>45</ele>
        <time>2017-07-18T03:26:10Z</time>
      </trkpt>
      <trkpt lat="48.53544" lon="-4.47442">
        <ele>45</ele>
        <time>2017-07-18T03:28:10Z</time>
      </trkpt>
      <trkpt lat="48.5366" lon="-4.47601">
        <ele>43</ele>
        <time>2017-07-18T03:30:10Z</time>
      </trkpt>
      <trkpt lat="48.53694" lon="-4.47688">
        <ele>40</ele>
        <time>2017-07-18T03:32:10Z</time>
      </trkpt>
      <trkpt lat="48.53714" lon="-4.4772">
        <ele>38</ele>
        <time>2017-07-18T03:34:10Z</time>
      </trkpt>
      <trkpt lat="48.53762" lon="-4.47708">
        <ele>36</ele>
        <time>2017-07-18T03:36:10Z</time>
      </trkpt>
      <trkpt lat="48.53788" lon="-4.47683">
        <ele>35</ele>
        <time>2017-07-18T03:38:10Z</time>
      </trkpt>
      <trkpt lat="48.53803" lon="-4.47656">
        <ele>34</ele>
        <time>2017-07-18T03:40:10Z</time>
      </trkpt>
      <trkpt lat="48.53831" lon="-4.47527">
        <ele>31</ele>
        <time>2017-07-18T03:42:10Z</time>
      </trkpt>
      <trkpt lat="48.53868" lon="-4.47501">
        <ele>32</ele>
        <time>2017-07-18T03:44:10Z</time>
      </trkpt>
      <trkpt lat="48.53905" lon="-4.47619">
        <ele>34</ele>
        <time>2017-07-18T03:46:10Z</time>
      </trkpt>
      <trkpt lat="48.53932" lon="-4.47659">
        <ele>35</ele>
        <time>2017-07-18T03:48:10Z</time>
      </trkpt>
      <trkpt lat="48.54003" lon="-4.47735">
        <ele>39</ele>
        <time>2017-07-18T03:50:10Z</time>
      </trkpt>
      <trkpt lat="48.54078" lon="-4.47775">
        <ele>41</ele>
        <time>2017-07-18T03:52:10Z</time>
      </trkpt>
      <trkpt lat="48.54039" lon="-4.47645">
        <ele>41</ele>
        <time>2017-07-18T03:54:10Z</time>
      </trkpt>
      <trkpt lat="48.54028" lon="-4.4757">
        <ele>41</ele>
        <time>2017-07-18T03:56:10Z</time>
      </trkpt>
      <trkpt lat="48.54027" lon="-4.47148">
        <ele>42</ele>
        <time>2017-07-18T03:58:10Z</time>
      </trkpt>
      <trkpt lat="48.54037" lon="-4.47086">
        <ele>42</ele>
        <time>2017-07-18T04:00:10Z</time>
      </trkpt>
      <trkpt lat="48.54055" lon="-4.47027">
        <ele>42</ele>
        <time>2017-07-18T04:02:10Z</time>
      </trkpt>
      <trkpt lat="48.54077" lon="-4.46982">
        <ele>42</ele>
        <time>2017-07-18T04:04:10Z</time>
      </trkpt>
      <trkpt lat="48.54158" lon="-4.46862">
        <ele>42</ele>
        <time>2017-07-18T04:06:10Z</time>
      </trkpt>
      <trkpt lat="48.54166" lon="-4.46829">
        <ele>42</ele>
        <time>2017-07-18T04:08:10Z</time>
      </trkpt>
      <trkpt lat="48.54163" lon="-4.4677">
        <ele>43</ele>
        <time>2017-07-18T04:10:10Z</time>
      </trkpt>
      <trkpt lat="48.54165" lon="-4.46807">
        <ele>43</ele>
        <time>2017-07-18T04:12:10Z</time>
      </trkpt>
      <trkpt lat="48.54172" lon="-4.46833">
        <ele>42</ele>
        <time>2017-07-18T04:14:10Z</time>
      </trkpt>
      <trkpt lat="48.54233" lon="-4.46864">
        <ele>44</ele>
        <time>2017-07-18T04:16:10Z</time>
      </trkpt>
      <trkpt lat="48.54246" lon="-4.46854">
        <ele>44</ele>
        <time>2017-07-18T04:18:10Z</time>
      </trkpt>
      <trkpt lat="48.54281" lon="-4.46732">
        <ele>45</ele>
        <time>2017-07-18T04:20:10Z</time>
      </trkpt>
      <trkpt lat="48.54284" lon="-4.46693">
        <ele>46</ele>
        <time>2017-07-18T04:22:10Z</time>
      </trkpt>
      <trkpt lat="48.54263" lon="-4.46612">
        <ele>47</ele>
        <time>2017-07-18T04:24:10Z</time>
      </trkpt>
      <trkpt lat="48.54236" lon="-4.46409">
        <ele>46</ele>
        <time>2017-07-18T04:26:10Z</time>
      </trkpt>
      <trkpt lat="48.54231" lon="-4.46307">
        <ele>47</ele>
        <time>2017-07-18T04:28:10Z</time>
      </trkpt>
      <trkpt lat="48.54249" lon="-4.46014">
        <ele>48</ele>
        <time>2017-07-18T04:30:10Z</time>
      </trkpt>
      <trkpt lat="48.54246" lon="-4.46027">
        <ele>48</ele>
        <time>2017-07-18T04:32:10Z</time>
      </trkpt>
      <trkpt lat="48.54251" lon="-4.46017">
        <ele>48</ele>
        <time>2017-07-18T04:34:10Z</time>
      </trkpt>
      <trkpt lat="48.54248" lon="-4.45974">
        <ele>48</ele>
        <time>2017-07-18T04:36:10Z</time>
      </trkpt>
      <trkpt lat="48.54246" lon="-4.45982">
        <ele>48</ele>
        <time>2017-07-18T04:38:10Z</time>
      </trkpt>
      <trkpt lat="48.5425" lon="-4.4597">
        <ele>48</ele>
        <time>2017-07-18T04:40:10Z</time>
      </trkpt>
      <trkpt lat="48.54261" lon="-4.45539">
        <ele>48</ele>
        <time>2017-07-18T04:42:10Z</time>
      </trkpt>
      <trkpt lat="48.54246" lon="-4.45473">
        <ele>48</ele>
        <time>2017-07-18T04:44:10Z</time>
      </trkpt>
      <trkpt lat="48.54259" lon="-4.45527">
        <ele>48</ele>
        <time>2017-07-18T04:46:10Z</time>
      </trkpt>
      <trkpt lat="48.54269" lon="-4.45532">
        <ele>48</ele>
        <time>2017-07-18T04:48:10Z</time>
      </trkpt>
      <trkpt lat="48.54306" lon="-4.45515">
        <ele>47</ele>
        <time>2017-07-18T04:50:10Z</time>
      </trkpt>
      <trkpt lat="48.54319" lon="-4.45494">
        <ele>47</ele>
        <time>2017-07-18T04:52:10Z</time>
      </trkpt>
      <trkpt lat="48.54352" lon="-4.45485">
        <ele>46</ele>
        <time>2017-07-18T04:54:10Z</time>
      </trkpt>
      <trkpt lat="48.54377" lon="-4.45464">
        <ele>45</ele>
        <time>2017-07-18T04:56:10Z</time>
      </trkpt>
      <trkpt lat="48.54411" lon="-4.45398">
        <ele>42</ele>
        <time>2017-07-18T04:58:10Z</time>
      </trkpt>
      <trkpt lat="48.5442" lon="-4.45348">
        <ele>41</ele>
        <time>2017-07-18T05:00:10Z</time>
      </trkpt>
      <trkpt lat="48.54414" lon="-4.45295">
        <ele>39</ele>
        <time>2017-07-18T05:02:10Z</time>
      </trkpt>
      <trkpt lat="48.5437" lon="-4.45167">
        <ele>40</ele>
        <time>2017-07-18T05:04:10Z</time>
      </trkpt>
      <trkpt lat="48.54375" lon="-4.45181">
        <ele>39</ele>
        <time>2017-07-18T05:06:10Z</time>
      </trkpt>
      <trkpt lat="48.54379" lon="-4.45172">
        <ele>39</ele>
        <time>2017-07-18T05:08:10Z</time>
      </trkpt>
      <trkpt lat="48.54369" lon="-4.4508">
        <ele>38</ele>
        <time>2017-07-18T05:10:10Z</time>
      </trkpt>
      <trkpt lat="48.54376" lon="-4.45035">
        <ele>36</ele>
        <time>2017-07-18T05:12:10Z</time>
      </trkpt>
      <trkpt lat="48.54404" lon="-4.4497">
        <ele>33</ele>
        <time>2017-07-18T05:14:10Z</time>
      </trkpt>
      <trkpt lat="48.54405" lon="-4.44955">
        <ele>33</ele>
        <time>2017-07-18T05:16:10Z</time>
      </trkpt>
      <trkpt lat="48.54366" lon="-4.44921">
        <ele>35</ele>
        <time>2017-07-18T05:18:10Z</time>
      </trkpt>
      <trkpt lat="48.54362" lon="-4.44907">
        <ele>35</ele>
        <time>2017-07-18T05:20:10Z</time>
      </trkpt>
      <trkpt lat="48.54318" lon="-4.44862">
        <ele>37</ele>
        <time>2017-07-18T05:22:10Z</time>
      </trkpt>
      <trkpt lat="48.54314" lon="-4.44842">
        <ele>37</ele>
        <time>2017-07-18T05:24:10Z</time>
      </trkpt>
      <trkpt lat="48.54332" lon="-4.44739">
        <ele>36</ele>
        <time>2017-07-18T05:26:10Z</time>
      </trkpt>
      <trkpt lat="48.54333" lon="-4.44685">
        <ele>38</ele>
        <time>2017-07-18T05:28:10Z</time>
      </trkpt>
      <trkpt lat="48.54324" lon="-4.44633">
        <ele>39</ele>
        <time>2017-07-18T05:30:10Z</time>
      </trkpt>
      <trkpt lat="48.54332" lon="-4.4458">
        <ele>40</ele>
        <time>2017-07-18T05:32:10Z</time>
      </trkpt>
      <trkpt lat="48.54365" lon="-4.44553">
        <ele>39</ele>
        <time>2017-07-18T05:34:10Z</time>
      </trkpt>
      <trkpt lat="48.54378" lon="-4.44533">
        <ele>39</ele>
        <time>2017-07-18T05:36:10Z</time>
      </trkpt>
      <trkpt lat="48.54374" lon="-4.44516">
        <ele>40</ele>
        <time>2017-07-18T05:38:10Z</time>
      </trkpt>
      <trkpt lat="48.54299" lon="-4.44399">
        <ele>43</ele>
        <time>2017-07-18T05:40:10Z</time>
      </trkpt>
      <trkpt lat="48.54227" lon="-4.44322">
        <ele>45</ele>
        <time>2017-07-18T05:42:10Z</time>
      </trkpt>
      <trkpt lat="48.54189" lon="-4.44301">
        <ele>45</ele>
        <time>2017-07-18T05:44:10Z</time>
      </trkpt>
      <trkpt lat="48.54147" lon="-4.44242">
        <ele>45</ele>
        <time>2017-07-18T05:46:10Z</time>
      </trkpt>
      <trkpt lat="48.54111" lon="-4.44173">
        <ele>45</ele>
        <time>2017-07-18T05:48:10Z</time>
      </trkpt>
      <trkpt lat="48.54049" lon="-4.44009">
        <ele>43</ele>
        <time>2017-07-18T05:50:10Z</time>
      </trkpt>
      <trkpt lat="48.53998" lon="-4.43918">
        <ele>44</ele>
        <time>2017-07-18T05:52:10Z</time>
      </trkpt>
      <trkpt lat="48.53983" lon="-4.43871">
        <ele>41</ele>
        <time>2017-07-18T05:54:10Z</time>
      </trkpt>
      <trkpt lat="48.53917" lon="-4.43782">
        <ele>39</ele>
        <time>2017-07-18T05:56:10Z</time>
      </trkpt>
      <trkpt lat="48.53819" lon="-4.43697">
        <ele>39</ele>
        <time>2017-07-18T05:58:10Z</time>
      </trkpt>
      <trkpt lat="48.53792" lon="-4.43662">
        <ele>40</ele>
        <time>2017-07-18T06:00:10Z</time>
      </trkpt>
      <trkpt lat="48.53769" lon="-4.43612">
        <ele>41</ele>
        <time>2017-07-18T06:02:10Z</time>
      </trkpt>
      <trkpt lat="48.53738" lon="-4.43621">
        <ele>43</ele>
        <time>2017-07-18T06:04:10Z</time>
      </trkpt>
      <trkpt lat="48.53732" lon="-4.43614">
        <ele>44</ele>
        <time>2017-07-18T06:06:10Z</time>
      </trkpt>
      <trkpt lat="48.53716" lon="-4.43541">
        <ele>43</ele>
        <time>2017-07-18T06:08:10Z</time>
      </trkpt>
      <trkpt lat="48.53693" lon="-4.43526">
        <ele>44</ele>
        <time>2017-07-18T06:10:10Z</time>
      </trkpt>
      <trkpt lat="48.5364" lon="-4.43538">
        <ele>45</ele>
        <time>2017-07-18T06:12:10Z</time>
      </trkpt>
      <trkpt lat="48.5361" lon="-4.4353">
        <ele>44</ele>
        <time>2017-07-18T06:14:10Z</time>
      </trkpt>
      <trkpt lat="48.53521" lon="-4.43446">
        <ele>44</ele>
        <time>2017-07-18T06:16:10Z</time>
      </trkpt>
      <trkpt lat="48.53408" lon="-4.43399">
        <ele>46</ele>
        <time>2017-07-18T06:18:10Z</time>
      </trkpt>
      <trkpt lat="48.53403" lon="-4.43405">
        <ele>46</ele>
        <time>2017-07-18T06:20:10Z</time>
      </trkpt>
      <trkpt lat="48.53393" lon="-4.43479">
        <ele>49</ele>
        <time>2017-07-18T06:22:10Z</time>
      </trkpt>
      <trkpt lat="48.5329" lon="-4.43612">
        <ele>53</ele>
        <time>2017-07-18T06:24:10Z</time>
      </trkpt>
      <trkpt lat="48.53116" lon="-4.43753">
        <ele>57</ele>
        <time>2017-07-18T06:26:10Z</time>
      </trkpt>
      <trkpt lat="48.53002" lon="-4.43881">
        <ele>56</ele>
        <time>2017-07-18T06:28:10Z</time>
      </trkpt>
      <trkpt lat="48.52893" lon="-4.4398">
        <ele>57</ele>
        <time>2017-07-18T06:30:10Z</time>
      </trkpt>
      <trkpt lat="48.52881" lon="-4.43984">
        <ele>58</ele>
        <time>2017-07-18T06:32:10Z</time>
      </trkpt>
      <trkpt lat="48.52807" lon="-4.44058">
        <ele>58</ele>
        <time>2017-07-18T06:34:10Z</time>
      </trkpt>
      <trkpt lat="48.52575" lon="-4.44333">
        <ele>56</ele>
        <time>2017-07-18T06:36:10Z</time>
      </trkpt>
      <trkpt lat="48.52535" lon="-4.44401">
        <ele>55</ele>
        <time>2017-07-18T06:38:10Z</time>
      </trkpt>
      <trkpt lat="48.52456" lon="-4.44508">
        <ele>55</ele>
        <time>2017-07-18T06:40:10Z</time>
      </trkpt>
      <trkpt lat="48.52297" lon="-4.44787">
        <ele>57</ele>
        <time>2017-07-18T06:42:10Z</time>
      </trkpt>
      <trkpt lat="48.52289" lon="-4.4482">
        <ele>58</ele>
        <time>2017-07-18T06:44:10Z</time>
      </trkpt>
      <trkpt lat="48.52292" lon="-4.4483">
        <ele>59</ele>
        <time>2017-07-18T06:46:10Z</time>
      </trkpt>
      <trkpt lat="48.5232" lon="-4.44845">
        <ele>61</ele>
        <time>2017-07-18T06:48:10Z</time>
      </trkpt>
      <trkpt lat="48.52335" lon="-4.44865">
        <ele>61</ele>
        <time>2017-07-18T06:50:10Z</time>
      </trkpt>
      <trkpt lat="48.52329" lon="-4.4487">
        <ele>61</ele>
        <time>2017-07-18T06:52:10Z</time>
      </trkpt>
      <trkpt lat="48.52273" lon="-4.44836">
        <ele>58</ele>
        <time>2017-07-18T06:54:10Z</time>
      </trkpt>
      <trkpt lat="48.52189" lon="-4.44899">
        <ele>56</ele>
        <time>2017-07-18T06:56:10Z</time>
      </trkpt>
      <trkpt lat="48.52105" lon="-4.44944">
        <ele>54</ele>
        <time>2017-07-18T06:58:10Z</time>
      </trkpt>
      <trkpt lat="48.52102" lon="-4.44953">
        <ele>54</ele>
        <time>2017-07-18T07:00:10Z</time>
      </trkpt>
      <trkpt lat="48.52108" lon="-4.44986">
        <ele>54</ele>
        <time>2017-07-18T07:02:10Z</time>
      </trkpt>
      <trkpt lat="48.52125" lon="-4.45002">
        <ele>55</ele>
        <time>2017-07-18T07:04:10Z</time>
      </trkpt>
      <trkpt lat="48.52144" lon="-4.45118">
        <ele>57</ele>
        <time>2017-07-18T07:06:10Z</time>
      </trkpt>
      <trkpt lat="48.52182" lon="-4.45161">
        <ele>59</ele>
        <time>2017-07-18T07:08:10Z</time>
      </trkpt>
      <trkpt lat="48.522" lon="-4.45167">
        <ele>60</ele>
        <time>2017-07-18T07:10:10Z</time>
      </trkpt>
      <trkpt lat="48.51945" lon="-4.45168">
        <ele>62</ele>
        <time>2017-07-18T07:12:10Z</time>
      </trkpt>
      <trkpt lat="48.51898" lon="-4.45175">
        <ele>62</ele>
        <time>2017-07-18T07:14:10Z</time>
      </trkpt>
      <trkpt lat="48.51839" lon="-4.45195">
        <ele>62</ele>
        <time>2017-07-18T07:16:10Z</time>
      </trkpt>
      <trkpt lat="48.51742" lon="-4.45261">
        <ele>62</ele>
        <time>2017-07-18T07:18:10Z</time>
      </trkpt>
      <trkpt lat="48.51607" lon="-4.45419">
        <ele>58</ele>
        <time>2017-07-18T07:20:10Z</time>
      </trkpt>
      <trkpt lat="48.51529" lon="-4.45473">
        <ele>58</ele>
        <time>2017-07-18T07:22:10Z</time>
      </trkpt>
      <trkpt lat="48.51357" lon="-4.45509">
        <ele>61</ele>
        <time>2017-07-18T07:24:10Z</time>
      </trkpt>
      <trkpt lat="48.51336" lon="-4.45505">
        <ele>62</ele>
        <time>2017-07-18T07:26:10Z</time>
      </trkpt>
      <trkpt lat="48.51298" lon="-4.45515">
        <ele>63</ele>
        <time>2017-07-18T07:28:10Z</time>
      </trkpt>
      <trkpt lat="48.51262" lon="-4.45513">
        <ele>64</ele>
        <time>2017-07-18T07:30:10Z</time>
      </trkpt>
      <trkpt lat="48.51217" lon="-4.45483">
        <ele>65</ele>
        <time>2017-07-18T07:32:10Z</time>
      </trkpt>
      <trkpt lat="48.51084" lon="-4.45301">
        <ele>64</ele>
        <time>2017-07-18T07:34:10Z</time>
      </trkpt>
      <trkpt lat="48.51005" lon="-4.45212">
        <ele>62</ele>
        <time>2017-07-18T07:36:10Z</time>
      </trkpt>
      <trkpt lat="48.50867" lon="-4.4503">
        <ele>65</ele>
        <time>2017-07-18T07:38:10Z</time>
      </trkpt>
      <trkpt lat="48.50786" lon="-4.4495">
        <ele>66</ele>
        <time>2017-07-18T07:40:10Z</time>
      </trkpt>
      <trkpt lat="48.50679" lon="-4.44877">
        <ele>67</ele>
        <time>2017-07-18T07:42:10Z</time>
      </trkpt>
      <trkpt lat="48.50663" lon="-4.44878">
        <ele>67</ele>
        <time>2017-07-18T07:44:10Z</time>
      </trkpt>
      <trkpt lat="48.50548" lon="-4.44796">
        <ele>69</ele>
        <time>2017-07-18T07:46:10Z</time>
      </trkpt>
      <trkpt lat="48.50514" lon="-4.44763">
        <ele>70</ele>
        <time>2017-07-18T07:48:10Z</time>
      </trkpt>
      <trkpt lat="48.5033" lon="-4.44505">
        <ele>81</ele>
        <time>2017-07-18T07:50:10Z</time>
      </trkpt>
      <trkpt lat="48.50277" lon="-4.44386">
        <ele>81</ele>
        <time>2017-07-18T07:52:10Z</time>
      </trkpt>
      <trkpt lat="48.50189" lon="-4.44147">
        <ele>77</ele>
        <time>2017-07-18T07:54:10Z</time>
      </trkpt>
      <trkpt lat="48.50164" lon="-4.43995">
        <ele>76</ele>
        <time>2017-07-18T07:56:10Z</time>
      </trkpt>
      <trkpt lat="48.50167" lon="-4.43875">
        <ele>74</ele>
        <time>2017-07-18T07:58:10Z</time>
      </trkpt>
      <trkpt lat="48.50193" lon="-4.43642">
        <ele>69</ele>
        <time>2017-07-18T08:00:10Z</time>
      </trkpt>
      <trkpt lat="48.50199" lon="-4.43623">
        <ele>69</ele>
        <time>2017-07-18T08:02:10Z</time>
      </trkpt>
      <trkpt lat="48.50209" lon="-4.43621">
        <ele>69</ele>
        <time>2017-07-18T08:04:10Z</time>
      </trkpt>
      <trkpt lat="48.50205" lon="-4.43635">
        <ele>69</ele>
        <time>2017-07-18T08:06:10Z</time>
      </trkpt>
      <trkpt lat="48.50203" lon="-4.43627">
        <ele>69</ele>
        <time>2017-07-18T08:08:10Z</time>
      </trkpt>
      <trkpt lat="48.50212" lon="-4.43595">
        <ele>69</ele>
        <time>2017-07-18T08:10:10Z</time>
      </trkpt>
      <trkpt lat="48.502" lon="-4.43695">
        <ele>69</ele>
        <time>2017-07-18T08:12:10Z</time>
      </trkpt>
      <trkpt lat="48.50218" lon="-4.43714">
        <ele>69</ele>
        <time>2017-07-18T08:14:10Z</time>
      </trkpt>
      <trkpt lat="48.50235" lon="-4.43652">
        <ele>68</ele>
        <time>2017-07-18T08:16:10Z</time>
      </trkpt>
      <trkpt lat="48.50229" lon="-4.43628">
        <ele>68</ele>
        <time>2017-07-18T08:18:10Z</time>
      </trkpt>
      <trkpt lat="48.50211" lon="-4.43634">
        <ele>69</ele>
        <time>2017-07-18T08:20:10Z</time>
      </trkpt>
      <trkpt lat="48.50203" lon="-4.43622">
        <ele>69</ele>
        <time>2017-07-18T08:22:10Z</time>
      </trkpt>
      <trkpt lat="48.50206" lon="-4.43626">
        <ele>69</ele>
        <time>2017-07-18T08:24:10Z</time>
      </trkpt>
      <trkpt lat="48.50204" lon="-4.43617">
        <ele>69</ele>
        <time>2017-07-18T08:26:10Z</time>
      </trkpt>
      <trkpt lat="48.50196" lon="-4.43622">
        <ele>69</ele>
        <time>2017-07-18T08:28:10Z</time>
      </trkpt>
      <trkpt lat="48.50191" lon="-4.43606">
        <ele>70</ele>
        <time>2017-07-18T08:30:10Z</time>
      </trkpt>
      <trkpt lat="48.50195" lon="-4.43542">
        <ele>68</ele>
        <time>2017-07-18T08:32:10Z</time>
      </trkpt>
      <trkpt lat="48.50188" lon="-4.43466">
        <ele>67</ele>
        <time>2017-07-18T08:34:10Z</time>
      </trkpt>
      <trkpt lat="48.50169" lon="-4.43395">
        <ele>66</ele>
        <time>2017-07-18T08:36:10Z</time>
      </trkpt>
      <trkpt lat="48.50135" lon="-4.43316">
        <ele>66</ele>
        <time>2017-07-18T08:38:10Z</time>
      </trkpt>
      <trkpt lat="48.50128" lon="-4.43328">
        <ele>66</ele>
        <time>2017-07-18T08:40:10Z</time>
      </trkpt>
      <trkpt lat="48.50138" lon="-4.4335">
        <ele>67</ele>
        <time>2017-07-18T08:42:10Z</time>
      </trkpt>
      <trkpt lat="48.50138" lon="-4.43373">
        <ele>67</ele>
        <time>2017-07-18T08:44:10Z</time>
      </trkpt>
      <trkpt lat="48.50125" lon="-4.43369">
        <ele>68</ele>
        <time>2017-07-18T08:46:10Z</time>
      </trkpt>
      <trkpt lat="48.50102" lon="-4.4334">
        <ele>68</ele>
        <time>2017-07-18T08:48:10Z</time>
      </trkpt>
      <trkpt lat="48.50093" lon="-4.43365">
        <ele>69</ele>
        <time>2017-07-18T08:50:10Z</time>
      </trkpt>
      <trkpt lat="48.50099" lon="-4.43348">
        <ele>68</ele>
        <time>2017-07-18T08:52:10Z</time>
      </trkpt>
      <trkpt lat="48.50083" lon="-4.43324">
        <ele>68</ele>
        <time>2017-07-18T08:54:10Z</time>
      </trkpt>
      <trkpt lat="48.50032" lon="-4.43293">
        <ele>69</ele>
        <time>2017-07-18T08:56:10Z</time>
      </trkpt>
      <trkpt lat="48.50003" lon="-4.43264">
        <ele>69</ele>
        <time>2017-07-18T08:58:10Z</time>
      </trkpt>
      <trkpt lat="48.49955" lon="-4.43231">
        <ele>69</ele>
        <time>2017-07-18T09:00:10Z</time>
      </trkpt>
      <trkpt lat="48.49854" lon="-4.43187">
        <ele>69</ele>
        <time>2017-07-18T09:02:10Z</time>
      </trkpt>
      <trkpt lat="48.49808" lon="-4.4313">
        <ele>68</ele>
        <time>2017-07-18T09:04:10Z</time>
      </trkpt>
      <trkpt lat="48.49792" lon="-4.43119">
        <ele>67</ele>
        <time>2017-07-18T09:06:10Z</time>
      </trkpt>
      <trkpt lat="48.49787" lon="-4.43106">
        <ele>67</ele>
        <time>2017-07-18T09:08:10Z</time>
      </trkpt>
      <trkpt lat="48.49756" lon="-4.43071">
        <ele>66</ele>
        <time>2017-07-18T09:10:10Z</time>
      </trkpt>
      <trkpt lat="48.497" lon="-4.43035">
        <ele>67</ele>
        <time>2017-07-18T09:12:10Z</time>
      </trkpt>
      <trkpt lat="48.49685" lon="-4.43015">
        <ele>66</ele>
        <time>2017-07-18T09:14:10Z</time>
      </trkpt>
      <trkpt lat="48.4968" lon="-4.42988">
        <ele>66</ele>
        <time>2017-07-18T09:16:10Z</time>
      </trkpt>
      <trkpt lat="48.4959" lon="-4.42935">
        <ele>67</ele>
        <time>2017-07-18T09:18:10Z</time>
      </trkpt>
      <trkpt lat="48.49564" lon="-4.42927">
        <ele>66</ele>
        <time>2017-07-18T09:20:10Z</time>
      </trkpt>
      <trkpt lat="48.4954" lon="-4.42888">
        <ele>66</ele>
        <time>2017-07-18T09:22:10Z</time>
      </trkpt>
      <trkpt lat="48.4952" lon="-4.42878">
        <ele>66</ele>
        <time>2017-07-18T09:24:10Z</time>
      </trkpt>
      <trkpt lat="48.49472" lon="-4.42872">
        <ele>66</ele>
        <time>2017-07-18T09:26:10Z</time>
      </trkpt>
      <trkpt lat="48.4946" lon="-4.4289">
        <ele>65</ele>
        <time>2017-07-18T09:28:10Z</time>
      </trkpt>
      <trkpt lat="48.49456" lon="-4.42992">
        <ele>65</ele>
        <time>2017-07-18T09:30:10Z</time>
      </trkpt>
      <trkpt lat="48.49449" lon="-4.42986">
        <ele>65</ele>
        <time>2017-07-18T09:32:10Z</time>
      </trkpt>
      <trkpt lat="48.49448" lon="-4.42942">
        <ele>64</ele>
        <time>2017-07-18T09:34:10Z</time>
      </trkpt>
      <trkpt lat="48.4944" lon="-4.42935">
        <ele>64</ele>
        <time>2017-07-18T09:36:10Z</time>
      </trkpt>
      <trkpt lat="48.49449" lon="-4.42921">
        <ele>64</ele>
        <time>2017-07-18T09:38:10Z</time>
      </trkpt>
      <trkpt lat="48.49455" lon="-4.4288">
        <ele>65</ele>
        <time>2017-07-18T09:40:10Z</time>
      </trkpt>
      <trkpt lat="48.49449" lon="-4.42852">
        <ele>66</ele>
        <time>2017-07-18T09:42:10Z</time>
      </trkpt>
      <trkpt lat="48.49431" lon="-4.42835">
        <ele>67</ele>
        <time>2017-07-18T09:44:10Z</time>
      </trkpt>
      <trkpt lat="48.4942" lon="-4.42813">
        <ele>67</ele>
        <time>2017-07-18T09:46:10Z</time>
      </trkpt>
      <trkpt lat="48.49258" lon="-4.42735">
        <ele>68</ele>
        <time>2017-07-18T09:48:10Z</time>
      </trkpt>
      <trkpt lat="48.49219" lon="-4.42703">
        <ele>68</ele>
        <time>2017-07-18T09:50:10Z</time>
      </trkpt>
      <trkpt lat="48.49166" lon="-4.42642">
        <ele>68</ele>
        <time>2017-07-18T09:52:10Z</time>
      </trkpt>
      <trkpt lat="48.49108" lon="-4.42557">
        <ele>67</ele>
        <time>2017-07-18T09:54:10Z</time>
      </trkpt>
      <trkpt lat="48.4909" lon="-4.42543">
        <ele>67</ele>
        <time>2017-07-18T09:56:10Z</time>
      </trkpt>
      <trkpt lat="48.49051" lon="-4.42532">
        <ele>66</ele>
        <time>2017-07-18T09:58:10Z</time>
      </trkpt>
      <trkpt lat="48.49011" lon="-4.42538">
        <ele>66</ele>
        <time>2017-07-18T10:00:10Z</time>
      </trkpt>
      <trkpt lat="48.4884" lon="-4.42652">
        <ele>66</ele>
        <time>2017-07-18T10:02:10Z</time>
      </trkpt>
      <trkpt lat="48.48762" lon="-4.42689">
        <ele>66</ele>
        <time>2017-07-18T10:04:10Z</time>
      </trkpt>
      <trkpt lat="48.48662" lon="-4.42708">
        <ele>67</ele>
        <time>2017-07-18T10:06:10Z</time>
      </trkpt>
      <trkpt lat="48.4854" lon="-4.42697">
        <ele>66</ele>
        <time>2017-07-18T10:08:10Z</time>
      </trkpt>
      <trkpt lat="48.48464" lon="-4.42671">
        <ele>65</ele>
        <time>2017-07-18T10:10:10Z</time>
      </trkpt>
      <trkpt lat="48.48365" lon="-4.42618">
        <ele>65</ele>
        <time>2017-07-18T10:12:10Z</time>
      </trkpt>
      <trkpt lat="48.48122" lon="-4.42439">
        <ele>69</ele>
        <time>2017-07-18T10:14:10Z</time>
      </trkpt>
      <trkpt lat="48.48001" lon="-4.42372">
        <ele>71</ele>
        <time>2017-07-18T10:16:10Z</time>
      </trkpt>
      <trkpt lat="48.47961" lon="-4.42368">
        <ele>71</ele>
        <time>2017-07-18T10:18:10Z</time>
      </trkpt>
      <trkpt lat="48.47919" lon="-4.42385">
        <ele>72</ele>
        <time>2017-07-18T10:20:10Z</time>
      </trkpt>
      <trkpt lat="48.47887" lon="-4.42414">
        <ele>72</ele>
        <time>2017-07-18T10:22:10Z</time>
      </trkpt>
      <trkpt lat="48.47867" lon="-4.42443">
        <ele>73</ele>
        <time>2017-07-18T10:24:10Z</time>
      </trkpt>
      <trkpt lat="48.47828" lon="-4.42529">
        <ele>76</ele>
        <time>2017-07-18T10:26:10Z</time>
      </trkpt>
      <trkpt lat="48.478" lon="-4.42577">
        <ele>76</ele>
        <time>2017-07-18T10:28:10Z</time>
      </trkpt>
      <trkpt lat="48.47769" lon="-4.42609">
        <ele>75</ele>
        <time>2017-07-18T10:30:10Z</time>
      </trkpt>
      <trkpt lat="48.47709" lon="-4.4264">
        <ele>75</ele>
        <time>2017-07-18T10:32:10Z</time>
      </trkpt>
      <trkpt lat="48.47473" lon="-4.42668">
        <ele>76</ele>
        <time>2017-07-18T10:34:10Z</time>
      </trkpt>
      <trkpt lat="48.47477" lon="-4.42663">
        <ele>76</ele>
        <time>2017-07-18T10:36:10Z</time>
      </trkpt>
      <trkpt lat="48.47471" lon="-4.42662">
        <ele>76</ele>
        <time>2017-07-18T10:38:10Z</time>
      </trkpt>
      <trkpt lat="48.47477" lon="-4.42662">
        <ele>76</ele>
        <time>2017-07-18T10:40:10Z</time>
      </trkpt>
      <trkpt lat="48.47421" lon="-4.42672">
        <ele>76</ele>
        <time>2017-07-18T10:42:10Z</time>
      </trkpt>
      <trkpt lat="48.4738" lon="-4.42695">
        <ele>77</ele>
        <time>2017-07-18T10:44:10Z</time>
      </trkpt>
      <trkpt lat="48.47347" lon="-4.42731">
        <ele>77</ele>
        <time>2017-07-18T10:46:10Z</time>
      </trkpt>
      <trkpt lat="48.47316" lon="-4.42801">
        <ele>77</ele>
        <time>2017-07-18T10:48:10Z</time>
      </trkpt>
      <trkpt lat="48.47298" lon="-4.42861">
        <ele>79</ele>
        <time>2017-07-18T10:50:10Z</time>
      </trkpt>
      <trkpt lat="48.47277" lon="-4.42968">
        <ele>81</ele>
        <time>2017-07-18T10:52:10Z</time>
      </trkpt>
      <trkpt lat="48.47273" lon="-4.43026">
        <ele>81</ele>
        <time>2017-07-18T10:54:10Z</time>
      </trkpt>
      <trkpt lat="48.47274" lon="-4.43187">
        <ele>83</ele>
        <time>2017-07-18T10:56:10Z</time>
      </trkpt>
      <trkpt lat="48.47266" lon="-4.43287">
        <ele>84</ele>
        <time>2017-07-18T10:58:10Z</time>
      </trkpt>
      <trkpt lat="48.47248" lon="-4.43374">
        <ele>86</ele>
        <time>2017-07-18T11:00:10Z</time>
      </trkpt>
      <trkpt lat="48.47226" lon="-4.43438">
        <ele>87</ele>
        <time>2017-07-18T11:02:10Z</time>
      </trkpt>
      <trkpt lat="48.47089" lon="-4.43714">
        <ele>94</ele>
        <time>2017-07-18T11:04:10Z</time>
      </trkpt>
      <trkpt lat="48.4671" lon="-4.43554">
        <ele>95</ele>
        <time>2017-07-18T11:06:10Z</time>
      </trkpt>
      <trkpt lat="48.46707" lon="-4.43537">
        <ele>95</ele>
        <time>2017-07-18T11:08:10Z</time>
      </trkpt>
      <trkpt lat="48.46757" lon="-4.43346">
        <ele>91</ele>
        <time>2017-07-18T11:10:10Z</time>
      </trkpt>
      <trkpt lat="48.46749" lon="-4.43328">
        <ele>90</ele>
        <time>2017-07-18T11:12:10Z</time>
      </trkpt>
      <trkpt lat="48.46664" lon="-4.43307">
        <ele>89</ele>
        <time>2017-07-18T11:14:10Z</time>
      </trkpt>
      <trkpt lat="48.46097" lon="-4.43029">
        <ele>96</ele>
        <time>2017-07-18T11:16:10Z</time>
      </trkpt>
      <trkpt lat="48.46082" lon="-4.43033">
        <ele>95</ele>
        <time>2017-07-18T11:18:10Z</time>
      </trkpt>
      <trkpt lat="48.45905" lon="-4.43442">
        <ele>93</ele>
        <time>2017-07-18T11:20:10Z</time>
      </trkpt>
      <trkpt lat="48.45838" lon="-4.43569">
        <ele>92</ele>
        <time>2017-07-18T11:22:10Z</time>
      </trkpt>
      <trkpt lat="48.45779" lon="-4.43751">
        <ele>91</ele>
        <time>2017-07-18T11:24:10Z</time>
      </trkpt>
      <trkpt lat="48.45776" lon="-4.43854">
        <ele>90</ele>
        <time>2017-07-18T11:26:10Z</time>
      </trkpt>
      <trkpt lat="48.45768" lon="-4.43905">
        <ele>91</ele>
        <time>2017-07-18T11:28:10Z</time>
      </trkpt>
      <trkpt lat="48.45751" lon="-4.43934">
        <ele>92</ele>
        <time>2017-07-18T11:30:10Z</time>
      </trkpt>
      <trkpt lat="48.45691" lon="-4.43951">
        <ele>93</ele>
        <time>2017-07-18T11:32:10Z</time>
      </trkpt>
      <trkpt lat="48.45666" lon="-4.43982">
        <ele>92</ele>
        <time>2017-07-18T11:34:10Z</time>
      </trkpt>
      <trkpt lat="48.45583" lon="-4.44124">
        <ele>93</ele>
        <time>2017-07-18T11:36:10Z</time>
      </trkpt>
      <trkpt lat="48.45575" lon="-4.44175">
        <ele>93</ele>
        <time>2017-07-18T11:38:10Z</time>
      </trkpt>
      <trkpt lat="48.45575" lon="-4.44215">
        <ele>93</ele>
        <time>2017-07-18T11:40:10Z</time>
      </trkpt>
      <trkpt lat="48.45567" lon="-4.44267">
        <ele>93</ele>
        <time>2017-07-18T11:42:10Z</time>
      </trkpt>
      <trkpt lat="48.45527" lon="-4.44381">
        <ele>93</ele>
        <time>2017-07-18T11:44:10Z</time>
      </trkpt>
      <trkpt lat="48.45522" lon="-4.44421">
        <ele>93</ele>
        <time>2017-07-18T11:46:10Z</time>
      </trkpt>
      <trkpt lat="48.45518" lon="-4.44747">
        <ele>92</ele>
        <time>2017-07-18T11:48:10Z</time>
      </trkpt>
      <trkpt lat="48.45502" lon="-4.449">
        <ele>90</ele>
        <time>2017-07-18T11:50:10Z</time>
      </trkpt>
      <trkpt lat="48.45516" lon="-4.45021">
        <ele>91</ele>
        <time>2017-07-18T11:52:10Z</time>
      </trkpt>
      <trkpt lat="48.45551" lon="-4.45158">
        <ele>90</ele>
        <time>2017-07-18T11:54:10Z</time>
      </trkpt>
      <trkpt lat="48.45593" lon="-4.45263">
        <ele>88</ele>
        <time>2017-07-18T11:56:10Z</time>
      </trkpt>
      <trkpt lat="48.45603" lon="-4.45272">
        <ele>88</ele>
        <time>2017-07-18T11:58:10Z</time>
      </trkpt>
      <trkpt lat="48.45636" lon="-4.45405">
        <ele>88</ele>
        <time>2017-07-18T12:00:10Z</time>
      </trkpt>
      <trkpt lat="48.45644" lon="-4.45499">
        <ele>90</ele>
        <time>2017-07-18T12:02:10Z</time>
      </trkpt>
      <trkpt lat="48.4563" lon="-4.45619">
        <ele>88</ele>
        <time>2017-07-18T12:04:10Z</time>
      </trkpt>
      <trkpt lat="48.45633" lon="-4.45674">
        <ele>86</ele>
        <time>2017-07-18T12:06:10Z</time>
      </trkpt>
      <trkpt lat="48.45676" lon="-4.45858">
        <ele>86</ele>
        <time>2017-07-18T12:08:10Z</time>
      </trkpt>
      <trkpt lat="48.45694" lon="-4.4602">
        <ele>86</ele>
        <time>2017-07-18T12:10:10Z</time>
      </trkpt>
      <trkpt lat="48.45682" lon="-4.46064">
        <ele>86</ele>
        <time>2017-07-18T12:12:10Z</time>
      </trkpt>
      <trkpt lat="48.45593" lon="-4.46144">
        <ele>86</ele>
        <time>2017-07-18T12:14:10Z</time>
      </trkpt>
      <trkpt lat="48.45578" lon="-4.4614">
        <ele>86</ele>
        <time>2017-07-18T12:16:10Z</time>
      </trkpt>
      <trkpt lat="48.45557" lon="-4.46074">
        <ele>86</ele>
        <time>2017-07-18T12:18:10Z</time>
      </trkpt>
      <trkpt lat="48.45539" lon="-4.46076">
        <ele>86</ele>
        <time>2017-07-18T12:20:10Z</time>
      </trkpt>
      <trkpt lat="48.45506" lon="-4.46095">
        <ele>87</ele>
        <time>2017-07-18T12:22:10Z</time>
      </trkpt>
      <trkpt lat="48.45495" lon="-4.46089">
        <ele>87</ele>
        <time>2017-07-18T12:24:10Z</time>
      </trkpt>
      <trkpt lat="48.45484" lon="-4.4606">
        <ele>87</ele>
        <time>2017-07-18T12:26:10Z</time>
      </trkpt>
      <trkpt lat="48.45479" lon="-4.4606">
        <ele>88</ele>
        <time>2017-07-18T12:28:10Z</time>
      </trkpt>
    </trkseg>
  </trk>
</gpx>